sensor_id;sensor_type;location;lat;lon;timestamp;temperature;humidity
3488;DHT22;38546;48.170;11.724;2022-09-09T00:02:33;15.40;99.90
3488;DHT22;38546;48.170;11.724;2022-09-09T00:05:34;15.40;99.90
3488;DHT22;38546;48.170;11.724;2022-09-09T00:09:28;15.30;99.90
3488;DHT22;38546;48.170;11.724;2022-09-09T00:12:36;15.20;99.90
3488;DHT22;38546;48.170;11.724;2022-09-09T00:16:15;15.10;99.90
3488;DHT22;38546;48.170;11.724;2022-09-09T00:21:52;15.10;99.90
3488;DHT22;38546;48.170;11.724;2022-09-09T00:25:34;15.00;99.90
3488;DHT22;38546;48.170;11.724;2022-09-09T00:28:29;14.90;99.90
3488;DHT22;38546;48.170;11.724;2022-09-09T00:31:26;14.90;99.90
3488;DHT22;38546;48.170;11.724;2022-09-09T00:34:23;14.90;99.90
3488;DHT22;38546;48.170;11.724;2022-09-09T00:37:14;14.90;99.90
3488;DHT22;38546;48.170;11.724;2022-09-09T00:40:18;14.90;99.90
3488;DHT22;38546;48.170;11.724;2022-09-09T00:57:32;14.90;99.90
3488;DHT22;38546;48.170;11.724;2022-09-09T01:01:24;15.00;99.90
3488;DHT22;38546;48.170;11.724;2022-09-09T01:04:16;15.10;99.90
3488;DHT22;38546;48.170;11.724;2022-09-09T01:07:18;15.10;99.90
3488;DHT22;38546;48.170;11.724;2022-09-09T01:10:23;15.10;99.90
3488;DHT22;38546;48.170;11.724;2022-09-09T01:13:27;15.10;99.90
3488;DHT22;38546;48.170;11.724;2022-09-09T01:16:22;15.10;99.90
3488;DHT22;38546;48.170;11.724;2022-09-09T01:19:20;15.10;99.90
3488;DHT22;38546;48.170;11.724;2022-09-09T01:23:04;15.10;99.90
3488;DHT22;38546;48.170;11.724;2022-09-09T01:26:36;15.10;99.90
3488;DHT22;38546;48.170;11.724;2022-09-09T01:29:27;15.10;99.90
3488;DHT22;38546;48.170;11.724;2022-09-09T01:32:43;15.20;99.90
3488;DHT22;38546;48.170;11.724;2022-09-09T01:37:28;15.20;99.90
3488;DHT22;38546;48.170;11.724;2022-09-09T01:40:18;15.30;99.90
3488;DHT22;38546;48.170;11.724;2022-09-09T01:43:08;15.30;99.90
3488;DHT22;38546;48.170;11.724;2022-09-09T01:46:00;15.30;99.90
3488;DHT22;38546;48.170;11.724;2022-09-09T01:48:52;15.30;99.90
3488;DHT22;38546;48.170;11.724;2022-09-09T01:51:43;15.30;99.90
3488;DHT22;38546;48.170;11.724;2022-09-09T01:54:33;15.40;99.90
3488;DHT22;38546;48.170;11.724;2022-09-09T01:57:56;15.40;99.90
3488;DHT22;38546;48.170;11.724;2022-09-09T02:04:38;15.40;99.90
3488;DHT22;38546;48.170;11.724;2022-09-09T02:07:40;15.40;99.90
3488;DHT22;38546;48.170;11.724;2022-09-09T02:10:42;15.30;99.90
3488;DHT22;38546;48.170;11.724;2022-09-09T02:13:37;15.30;99.90
3488;DHT22;38546;48.170;11.724;2022-09-09T02:16:34;15.30;99.90
3488;DHT22;38546;48.170;11.724;2022-09-09T02:19:31;15.30;99.90
3488;DHT22;38546;48.170;11.724;2022-09-09T02:22:24;15.20;99.90
3488;DHT22;38546;48.170;11.724;2022-09-09T02:25:18;15.30;99.90
3488;DHT22;38546;48.170;11.724;2022-09-09T02:28:10;15.20;99.90
3488;DHT22;38546;48.170;11.724;2022-09-09T02:31:01;15.20;99.90
3488;DHT22;38546;48.170;11.724;2022-09-09T02:33:55;15.20;99.90
3488;DHT22;38546;48.170;11.724;2022-09-09T02:36:46;15.20;99.90
3488;DHT22;38546;48.170;11.724;2022-09-09T02:39:37;15.20;99.90
3488;DHT22;38546;48.170;11.724;2022-09-09T02:42:26;15.20;99.90
3488;DHT22;38546;48.170;11.724;2022-09-09T02:45:18;15.20;99.90
3488;DHT22;38546;48.170;11.724;2022-09-09T02:55:02;15.20;99.90
3488;DHT22;38546;48.170;11.724;2022-09-09T02:57:56;15.30;99.90
3488;DHT22;38546;48.170;11.724;2022-09-09T03:00:49;15.30;99.90
3488;DHT22;38546;48.170;11.724;2022-09-09T03:03:39;15.30;99.90
3488;DHT22;38546;48.170;11.724;2022-09-09T03:06:30;15.30;99.90
3488;DHT22;38546;48.170;11.724;2022-09-09T03:09:20;15.30;99.90
3488;DHT22;38546;48.170;11.724;2022-09-09T03:12:09;15.30;99.90
3488;DHT22;38546;48.170;11.724;2022-09-09T03:15:00;15.40;99.90
3488;DHT22;38546;48.170;11.724;2022-09-09T03:17:50;15.40;99.90
3488;DHT22;38546;48.170;11.724;2022-09-09T03:20:41;15.40;99.90
3488;DHT22;38546;48.170;11.724;2022-09-09T03:23:31;15.40;99.90
3488;DHT22;38546;48.170;11.724;2022-09-09T03:26:20;15.40;99.90
3488;DHT22;38546;48.170;11.724;2022-09-09T03:29:11;15.40;99.90
3488;DHT22;38546;48.170;11.724;2022-09-09T03:32:02;15.40;99.90
3488;DHT22;38546;48.170;11.724;2022-09-09T03:34:52;15.40;99.90
3488;DHT22;38546;48.170;11.724;2022-09-09T03:37:41;15.40;99.90
3488;DHT22;38546;48.170;11.724;2022-09-09T03:40:31;15.30;99.90
3488;DHT22;38546;48.170;11.724;2022-09-09T03:43:21;15.30;99.90
3488;DHT22;38546;48.170;11.724;2022-09-09T03:46:10;15.30;99.90
3488;DHT22;38546;48.170;11.724;2022-09-09T03:48:59;15.30;99.90
3488;DHT22;38546;48.170;11.724;2022-09-09T03:51:49;15.20;99.90
3488;DHT22;38546;48.170;11.724;2022-09-09T03:54:38;15.20;99.90
3488;DHT22;38546;48.170;11.724;2022-09-09T03:57:28;15.20;99.90
3488;DHT22;38546;48.170;11.724;2022-09-09T04:00:19;15.20;99.90
3488;DHT22;38546;48.170;11.724;2022-09-09T04:03:09;15.10;99.90
3488;DHT22;38546;48.170;11.724;2022-09-09T04:06:00;15.10;99.90
3488;DHT22;38546;48.170;11.724;2022-09-09T04:08:51;15.10;99.90
3488;DHT22;38546;48.170;11.724;2022-09-09T04:11:41;15.10;99.90
3488;DHT22;38546;48.170;11.724;2022-09-09T04:14:31;15.10;99.90
3488;DHT22;38546;48.170;11.724;2022-09-09T04:17:20;15.10;99.90
3488;DHT22;38546;48.170;11.724;2022-09-09T04:20:09;15.10;99.90
3488;DHT22;38546;48.170;11.724;2022-09-09T04:23:00;15.10;99.90
3488;DHT22;38546;48.170;11.724;2022-09-09T04:25:52;15.10;99.90
3488;DHT22;38546;48.170;11.724;2022-09-09T04:28:42;15.10;99.90
3488;DHT22;38546;48.170;11.724;2022-09-09T04:31:32;15.10;99.90
3488;DHT22;38546;48.170;11.724;2022-09-09T04:34:23;15.10;99.90
3488;DHT22;38546;48.170;11.724;2022-09-09T04:37:13;15.10;99.90
3488;DHT22;38546;48.170;11.724;2022-09-09T04:40:03;15.10;99.90
3488;DHT22;38546;48.170;11.724;2022-09-09T04:42:54;15.10;99.90
3488;DHT22;38546;48.170;11.724;2022-09-09T04:45:47;15.10;99.90
3488;DHT22;38546;48.170;11.724;2022-09-09T04:48:37;15.00;99.90
3488;DHT22;38546;48.170;11.724;2022-09-09T04:51:26;15.00;99.90
3488;DHT22;38546;48.170;11.724;2022-09-09T04:54:15;15.00;99.90
3488;DHT22;38546;48.170;11.724;2022-09-09T04:57:05;14.90;99.90
3488;DHT22;38546;48.170;11.724;2022-09-09T04:59:55;15.00;99.90
3488;DHT22;38546;48.170;11.724;2022-09-09T05:02:44;14.90;99.90
3488;DHT22;38546;48.170;11.724;2022-09-09T05:05:34;14.90;99.90
3488;DHT22;38546;48.170;11.724;2022-09-09T05:08:24;14.90;99.90
3488;DHT22;38546;48.170;11.724;2022-09-09T05:11:25;14.90;99.90
3488;DHT22;38546;48.170;11.724;2022-09-09T05:14:16;14.90;99.90
3488;DHT22;38546;48.170;11.724;2022-09-09T05:17:07;14.90;99.90
3488;DHT22;38546;48.170;11.724;2022-09-09T05:19:57;14.90;99.90
3488;DHT22;38546;48.170;11.724;2022-09-09T05:22:46;14.90;99.90
3488;DHT22;38546;48.170;11.724;2022-09-09T05:25:35;15.00;99.90
3488;DHT22;38546;48.170;11.724;2022-09-09T05:28:26;15.00;99.90
3488;DHT22;38546;48.170;11.724;2022-09-09T05:31:17;15.00;99.90
3488;DHT22;38546;48.170;11.724;2022-09-09T05:34:07;15.10;99.90
3488;DHT22;38546;48.170;11.724;2022-09-09T05:36:56;15.10;99.90
3488;DHT22;38546;48.170;11.724;2022-09-09T05:39:45;15.20;99.90
3488;DHT22;38546;48.170;11.724;2022-09-09T05:42:35;15.20;99.90
3488;DHT22;38546;48.170;11.724;2022-09-09T05:45:24;15.20;99.90
3488;DHT22;38546;48.170;11.724;2022-09-09T05:48:14;15.20;99.90
3488;DHT22;38546;48.170;11.724;2022-09-09T05:51:07;15.20;99.90
3488;DHT22;38546;48.170;11.724;2022-09-09T05:53:59;15.20;99.90
3488;DHT22;38546;48.170;11.724;2022-09-09T05:56:48;15.20;99.90
3488;DHT22;38546;48.170;11.724;2022-09-09T05:59:39;15.30;99.90
3488;DHT22;38546;48.170;11.724;2022-09-09T06:02:28;15.30;99.90
3488;DHT22;38546;48.170;11.724;2022-09-09T06:05:19;15.40;99.90
3488;DHT22;38546;48.170;11.724;2022-09-09T06:08:08;15.50;99.90
3488;DHT22;38546;48.170;11.724;2022-09-09T06:11:03;15.60;99.90
3488;DHT22;38546;48.170;11.724;2022-09-09T06:13:59;15.60;99.90
3488;DHT22;38546;48.170;11.724;2022-09-09T06:16:48;15.70;99.90
3488;DHT22;38546;48.170;11.724;2022-09-09T06:19:38;15.70;99.90
3488;DHT22;38546;48.170;11.724;2022-09-09T06:22:27;15.90;99.90
3488;DHT22;38546;48.170;11.724;2022-09-09T06:25:16;15.90;99.90
3488;DHT22;38546;48.170;11.724;2022-09-09T06:28:07;16.00;99.90
3488;DHT22;38546;48.170;11.724;2022-09-09T06:31:00;16.10;99.90
3488;DHT22;38546;48.170;11.724;2022-09-09T06:33:51;16.10;99.90
3488;DHT22;38546;48.170;11.724;2022-09-09T06:36:41;16.20;99.90
3488;DHT22;38546;48.170;11.724;2022-09-09T06:39:32;16.20;99.90
3488;DHT22;38546;48.170;11.724;2022-09-09T06:42:21;16.10;99.90
3488;DHT22;38546;48.170;11.724;2022-09-09T06:45:10;16.10;99.90
3488;DHT22;38546;48.170;11.724;2022-09-09T06:48:00;16.10;99.90
3488;DHT22;38546;48.170;11.724;2022-09-09T06:50:49;16.10;99.90
3488;DHT22;38546;48.170;11.724;2022-09-09T06:53:39;16.10;99.90
3488;DHT22;38546;48.170;11.724;2022-09-09T06:56:35;16.10;99.90
3488;DHT22;38546;48.170;11.724;2022-09-09T06:59:25;16.20;99.90
3488;DHT22;38546;48.170;11.724;2022-09-09T07:02:15;16.20;99.90
3488;DHT22;38546;48.170;11.724;2022-09-09T07:05:04;16.30;99.90
3488;DHT22;38546;48.170;11.724;2022-09-09T07:07:55;16.40;99.90
3488;DHT22;38546;48.170;11.724;2022-09-09T07:10:44;16.60;99.90
3488;DHT22;38546;48.170;11.724;2022-09-09T07:13:33;16.60;99.90
3488;DHT22;38546;48.170;11.724;2022-09-09T07:16:23;16.60;99.90
3488;DHT22;38546;48.170;11.724;2022-09-09T07:19:13;16.60;99.90
3488;DHT22;38546;48.170;11.724;2022-09-09T07:22:04;16.70;99.90
3488;DHT22;38546;48.170;11.724;2022-09-09T07:24:55;16.80;99.90
3488;DHT22;38546;48.170;11.724;2022-09-09T07:27:44;16.90;99.90
3488;DHT22;38546;48.170;11.724;2022-09-09T07:30:33;17.10;99.90
3488;DHT22;38546;48.170;11.724;2022-09-09T07:33:23;17.10;99.90
3488;DHT22;38546;48.170;11.724;2022-09-09T07:36:25;17.30;99.90
3488;DHT22;38546;48.170;11.724;2022-09-09T07:39:18;17.40;99.90
3488;DHT22;38546;48.170;11.724;2022-09-09T07:42:07;17.50;99.90
3488;DHT22;38546;48.170;11.724;2022-09-09T07:44:57;17.60;99.90
3488;DHT22;38546;48.170;11.724;2022-09-09T07:47:46;17.30;99.90
3488;DHT22;38546;48.170;11.724;2022-09-09T07:50:36;17.10;99.90
3488;DHT22;38546;48.170;11.724;2022-09-09T07:53:25;17.10;99.90
3488;DHT22;38546;48.170;11.724;2022-09-09T07:56:16;17.00;99.90
3488;DHT22;38546;48.170;11.724;2022-09-09T07:59:07;16.90;99.90
3488;DHT22;38546;48.170;11.724;2022-09-09T08:01:57;16.90;99.90
3488;DHT22;38546;48.170;11.724;2022-09-09T08:04:47;17.00;99.90
3488;DHT22;38546;48.170;11.724;2022-09-09T08:07:38;17.00;99.90
3488;DHT22;38546;48.170;11.724;2022-09-09T08:10:27;17.10;99.90
3488;DHT22;38546;48.170;11.724;2022-09-09T08:13:17;17.30;99.90
3488;DHT22;38546;48.170;11.724;2022-09-09T08:16:12;17.50;99.90
3488;DHT22;38546;48.170;11.724;2022-09-09T08:19:04;17.60;99.90
3488;DHT22;38546;48.170;11.724;2022-09-09T08:21:56;17.80;99.90
3488;DHT22;38546;48.170;11.724;2022-09-09T08:24:45;17.90;99.90
3488;DHT22;38546;48.170;11.724;2022-09-09T08:27:36;18.00;99.90
3488;DHT22;38546;48.170;11.724;2022-09-09T08:30:26;18.10;99.90
3488;DHT22;38546;48.170;11.724;2022-09-09T08:33:16;18.10;99.90
3488;DHT22;38546;48.170;11.724;2022-09-09T08:36:06;18.20;99.90
3488;DHT22;38546;48.170;11.724;2022-09-09T08:38:58;18.20;99.90
3488;DHT22;38546;48.170;11.724;2022-09-09T08:47:35;18.30;99.90
3488;DHT22;38546;48.170;11.724;2022-09-09T08:50:51;18.30;99.90
3488;DHT22;38546;48.170;11.724;2022-09-09T08:53:44;18.30;99.90
3488;DHT22;38546;48.170;11.724;2022-09-09T08:56:38;18.30;99.90
3488;DHT22;38546;48.170;11.724;2022-09-09T08:59:27;18.30;99.90
3488;DHT22;38546;48.170;11.724;2022-09-09T09:05:09;18.30;99.90
3488;DHT22;38546;48.170;11.724;2022-09-09T09:08:43;18.20;99.90
3488;DHT22;38546;48.170;11.724;2022-09-09T09:11:55;18.20;99.90
3488;DHT22;38546;48.170;11.724;2022-09-09T09:14:49;18.20;99.90
3488;DHT22;38546;48.170;11.724;2022-09-09T09:17:40;18.20;99.90
3488;DHT22;38546;48.170;11.724;2022-09-09T09:21:16;18.10;99.90
3488;DHT22;38546;48.170;11.724;2022-09-09T09:24:23;18.10;99.90
3488;DHT22;38546;48.170;11.724;2022-09-09T09:27:34;17.90;99.90
3488;DHT22;38546;48.170;11.724;2022-09-09T09:30:34;17.90;99.90
3488;DHT22;38546;48.170;11.724;2022-09-09T09:36:59;17.70;99.90
3488;DHT22;38546;48.170;11.724;2022-09-09T09:39:52;18.00;99.90
3488;DHT22;38546;48.170;11.724;2022-09-09T09:42:59;18.00;99.90
3488;DHT22;38546;48.170;11.724;2022-09-09T09:45:49;18.20;99.90
3488;DHT22;38546;48.170;11.724;2022-09-09T09:48:38;18.30;99.90
3488;DHT22;38546;48.170;11.724;2022-09-09T09:51:29;18.40;99.90
3488;DHT22;38546;48.170;11.724;2022-09-09T09:54:30;18.40;99.90
3488;DHT22;38546;48.170;11.724;2022-09-09T09:57:27;18.50;99.90
3488;DHT22;38546;48.170;11.724;2022-09-09T10:00:21;18.50;99.90
3488;DHT22;38546;48.170;11.724;2022-09-09T10:03:27;18.40;99.90
3488;DHT22;38546;48.170;11.724;2022-09-09T10:06:33;18.40;99.90
3488;DHT22;38546;48.170;11.724;2022-09-09T10:09:30;18.30;99.90
3488;DHT22;38546;48.170;11.724;2022-09-09T10:12:33;18.30;99.90
3488;DHT22;38546;48.170;11.724;2022-09-09T10:22:33;18.40;99.90
3488;DHT22;38546;48.170;11.724;2022-09-09T10:26:48;18.60;99.90
3488;DHT22;38546;48.170;11.724;2022-09-09T10:40:32;18.80;99.90
3488;DHT22;38546;48.170;11.724;2022-09-09T10:46:48;18.70;99.90
3488;DHT22;38546;48.170;11.724;2022-09-09T10:55:32;18.90;99.90
3488;DHT22;38546;48.170;11.724;2022-09-09T10:58:49;19.00;99.90
3488;DHT22;38546;48.170;11.724;2022-09-09T11:01:52;19.20;99.90
3488;DHT22;38546;48.170;11.724;2022-09-09T11:10:44;19.50;99.90
3488;DHT22;38546;48.170;11.724;2022-09-09T11:13:55;20.00;99.90
3488;DHT22;38546;48.170;11.724;2022-09-09T11:17:01;19.80;99.90
3488;DHT22;38546;48.170;11.724;2022-09-09T11:19:53;19.70;99.90
3488;DHT22;38546;48.170;11.724;2022-09-09T11:22:53;19.70;99.90
3488;DHT22;38546;48.170;11.724;2022-09-09T11:25:51;19.80;99.90
3488;DHT22;38546;48.170;11.724;2022-09-09T11:29:40;19.80;99.90
3488;DHT22;38546;48.170;11.724;2022-09-09T11:41:20;20.50;99.90
3488;DHT22;38546;48.170;11.724;2022-09-09T11:44:18;20.30;99.90
3488;DHT22;38546;48.170;11.724;2022-09-09T11:50:37;20.20;99.90
3488;DHT22;38546;48.170;11.724;2022-09-09T11:53:27;20.30;99.90
3488;DHT22;38546;48.170;11.724;2022-09-09T11:56:34;20.40;99.90
3488;DHT22;38546;48.170;11.724;2022-09-09T11:59:33;20.70;99.90
3488;DHT22;38546;48.170;11.724;2022-09-09T12:02:25;20.60;99.90
3488;DHT22;38546;48.170;11.724;2022-09-09T12:05:20;20.70;99.90
3488;DHT22;38546;48.170;11.724;2022-09-09T12:08:16;20.50;99.90
3488;DHT22;38546;48.170;11.724;2022-09-09T12:11:27;20.60;99.90
3488;DHT22;38546;48.170;11.724;2022-09-09T12:14:37;20.50;99.90
3488;DHT22;38546;48.170;11.724;2022-09-09T12:17:46;20.50;99.90
3488;DHT22;38546;48.170;11.724;2022-09-09T12:20:39;20.40;99.90
3488;DHT22;38546;48.170;11.724;2022-09-09T12:23:51;20.40;99.90
3488;DHT22;38546;48.170;11.724;2022-09-09T12:26:47;20.30;99.90
3488;DHT22;38546;48.170;11.724;2022-09-09T12:30:19;20.30;99.90
3488;DHT22;38546;48.170;11.724;2022-09-09T12:33:12;20.30;99.90
3488;DHT22;38546;48.170;11.724;2022-09-09T12:36:11;20.30;99.90
3488;DHT22;38546;48.170;11.724;2022-09-09T12:39:14;20.30;99.90
3488;DHT22;38546;48.170;11.724;2022-09-09T12:42:16;20.10;99.90
3488;DHT22;38546;48.170;11.724;2022-09-09T12:45:16;20.10;99.90
3488;DHT22;38546;48.170;11.724;2022-09-09T12:48:11;20.20;99.90
3488;DHT22;38546;48.170;11.724;2022-09-09T12:51:01;20.10;99.90
3488;DHT22;38546;48.170;11.724;2022-09-09T12:53:52;20.10;99.90
3488;DHT22;38546;48.170;11.724;2022-09-09T12:56:45;20.00;99.90
3488;DHT22;38546;48.170;11.724;2022-09-09T12:59:39;20.10;99.90
3488;DHT22;38546;48.170;11.724;2022-09-09T13:02:30;20.20;99.90
3488;DHT22;38546;48.170;11.724;2022-09-09T13:05:37;20.30;99.90
3488;DHT22;38546;48.170;11.724;2022-09-09T13:08:31;20.50;99.90
3488;DHT22;38546;48.170;11.724;2022-09-09T13:12:04;20.70;99.90
3488;DHT22;38546;48.170;11.724;2022-09-09T13:14:56;20.80;99.90
3488;DHT22;38546;48.170;11.724;2022-09-09T13:17:51;21.00;99.90
3488;DHT22;38546;48.170;11.724;2022-09-09T13:20:46;21.00;99.90
3488;DHT22;38546;48.170;11.724;2022-09-09T13:23:37;21.00;99.90
3488;DHT22;38546;48.170;11.724;2022-09-09T13:26:27;21.00;99.90
3488;DHT22;38546;48.170;11.724;2022-09-09T13:29:19;21.00;99.90
3488;DHT22;38546;48.170;11.724;2022-09-09T13:32:18;20.90;99.90
3488;DHT22;38546;48.170;11.724;2022-09-09T13:35:23;21.00;99.90
3488;DHT22;38546;48.170;11.724;2022-09-09T13:38:14;21.00;99.90
3488;DHT22;38546;48.170;11.724;2022-09-09T13:41:06;20.90;99.90
3488;DHT22;38546;48.170;11.724;2022-09-09T13:43:58;21.00;99.90
3488;DHT22;38546;48.170;11.724;2022-09-09T13:46:48;21.00;99.90
3488;DHT22;38546;48.170;11.724;2022-09-09T13:49:52;20.90;99.90
3488;DHT22;38546;48.170;11.724;2022-09-09T13:52:42;20.80;99.90
3488;DHT22;38546;48.170;11.724;2022-09-09T13:55:31;20.80;99.90
3488;DHT22;38546;48.170;11.724;2022-09-09T13:58:22;20.60;99.90
3488;DHT22;38546;48.170;11.724;2022-09-09T14:01:13;20.40;99.90
3488;DHT22;38546;48.170;11.724;2022-09-09T14:04:03;20.30;99.90
3488;DHT22;38546;48.170;11.724;2022-09-09T14:06:55;20.00;99.90
3488;DHT22;38546;48.170;11.724;2022-09-09T14:09:45;19.90;99.90
3488;DHT22;38546;48.170;11.724;2022-09-09T14:12:39;19.70;99.90
3488;DHT22;38546;48.170;11.724;2022-09-09T14:15:28;19.70;99.90
3488;DHT22;38546;48.170;11.724;2022-09-09T14:18:18;19.80;99.90
3488;DHT22;38546;48.170;11.724;2022-09-09T14:21:08;19.80;99.90
3488;DHT22;38546;48.170;11.724;2022-09-09T14:23:58;19.80;99.90
3488;DHT22;38546;48.170;11.724;2022-09-09T14:26:48;19.70;99.90
3488;DHT22;38546;48.170;11.724;2022-09-09T14:29:37;19.70;99.90
3488;DHT22;38546;48.170;11.724;2022-09-09T14:32:27;19.80;99.90
3488;DHT22;38546;48.170;11.724;2022-09-09T14:35:18;19.80;99.90
3488;DHT22;38546;48.170;11.724;2022-09-09T14:38:08;19.80;99.90
3488;DHT22;38546;48.170;11.724;2022-09-09T14:40:59;19.80;99.90
3488;DHT22;38546;48.170;11.724;2022-09-09T14:43:52;19.90;99.90
3488;DHT22;38546;48.170;11.724;2022-09-09T14:46:43;19.90;99.90
3488;DHT22;38546;48.170;11.724;2022-09-09T14:49:32;19.80;99.90
3488;DHT22;38546;48.170;11.724;2022-09-09T14:52:22;19.80;99.90
3488;DHT22;38546;48.170;11.724;2022-09-09T14:55:13;19.80;99.90
3488;DHT22;38546;48.170;11.724;2022-09-09T14:58:04;19.90;99.90
3488;DHT22;38546;48.170;11.724;2022-09-09T15:00:54;20.00;99.90
3488;DHT22;38546;48.170;11.724;2022-09-09T15:03:52;20.00;99.90
3488;DHT22;38546;48.170;11.724;2022-09-09T15:06:51;20.00;99.90
3488;DHT22;38546;48.170;11.724;2022-09-09T15:09:42;20.00;99.90
3488;DHT22;38546;48.170;11.724;2022-09-09T15:12:31;20.00;99.90
3488;DHT22;38546;48.170;11.724;2022-09-09T15:15:21;20.00;99.90
3488;DHT22;38546;48.170;11.724;2022-09-09T15:18:10;19.90;99.90
3488;DHT22;38546;48.170;11.724;2022-09-09T15:21:00;19.80;99.90
3488;DHT22;38546;48.170;11.724;2022-09-09T15:23:51;19.80;99.90
3488;DHT22;38546;48.170;11.724;2022-09-09T15:26:41;19.80;99.90
3488;DHT22;38546;48.170;11.724;2022-09-09T15:29:30;19.60;99.90
3488;DHT22;38546;48.170;11.724;2022-09-09T15:32:19;19.60;99.90
3488;DHT22;38546;48.170;11.724;2022-09-09T15:35:09;19.50;99.90
3488;DHT22;38546;48.170;11.724;2022-09-09T15:38:02;19.60;99.90
3488;DHT22;38546;48.170;11.724;2022-09-09T15:40:56;19.50;99.90
3488;DHT22;38546;48.170;11.724;2022-09-09T15:43:52;19.40;99.90
3488;DHT22;38546;48.170;11.724;2022-09-09T15:46:54;19.30;99.90
3488;DHT22;38546;48.170;11.724;2022-09-09T15:49:44;19.20;99.90
3488;DHT22;38546;48.170;11.724;2022-09-09T15:52:33;19.20;99.90
3488;DHT22;38546;48.170;11.724;2022-09-09T15:55:23;19.20;99.90
3488;DHT22;38546;48.170;11.724;2022-09-09T15:58:15;19.20;99.90
3488;DHT22;38546;48.170;11.724;2022-09-09T16:01:09;19.10;99.90
3488;DHT22;38546;48.170;11.724;2022-09-09T16:03:59;19.10;99.90
3488;DHT22;38546;48.170;11.724;2022-09-09T16:07:03;19.20;99.90
3488;DHT22;38546;48.170;11.724;2022-09-09T16:10:03;19.20;99.90
3488;DHT22;38546;48.170;11.724;2022-09-09T16:12:52;19.20;99.90
3488;DHT22;38546;48.170;11.724;2022-09-09T16:15:43;19.30;99.90
3488;DHT22;38546;48.170;11.724;2022-09-09T16:18:37;19.30;99.90
3488;DHT22;38546;48.170;11.724;2022-09-09T16:21:34;19.30;99.90
3488;DHT22;38546;48.170;11.724;2022-09-09T16:24:26;19.30;99.90
3488;DHT22;38546;48.170;11.724;2022-09-09T16:27:16;19.20;99.90
3488;DHT22;38546;48.170;11.724;2022-09-09T16:30:06;19.10;99.90
3488;DHT22;38546;48.170;11.724;2022-09-09T16:32:56;19.00;99.90
3488;DHT22;38546;48.170;11.724;2022-09-09T16:35:46;18.80;99.90
3488;DHT22;38546;48.170;11.724;2022-09-09T16:38:36;18.70;99.90
3488;DHT22;38546;48.170;11.724;2022-09-09T16:41:27;18.70;99.90
3488;DHT22;38546;48.170;11.724;2022-09-09T16:44:17;18.60;99.90
3488;DHT22;38546;48.170;11.724;2022-09-09T16:47:07;18.60;99.90
3488;DHT22;38546;48.170;11.724;2022-09-09T16:49:56;18.60;99.90
3488;DHT22;38546;48.170;11.724;2022-09-09T16:52:45;18.70;99.90
3488;DHT22;38546;48.170;11.724;2022-09-09T16:55:39;18.70;99.90
3488;DHT22;38546;48.170;11.724;2022-09-09T16:58:30;18.60;99.90
3488;DHT22;38546;48.170;11.724;2022-09-09T17:01:18;18.50;99.90
3488;DHT22;38546;48.170;11.724;2022-09-09T17:04:20;18.50;99.90
3488;DHT22;38546;48.170;11.724;2022-09-09T17:07:14;18.40;99.90
3488;DHT22;38546;48.170;11.724;2022-09-09T17:10:04;18.30;99.90
3488;DHT22;38546;48.170;11.724;2022-09-09T17:12:54;18.20;99.90
3488;DHT22;38546;48.170;11.724;2022-09-09T17:15:44;18.20;99.90
3488;DHT22;38546;48.170;11.724;2022-09-09T17:18:35;18.10;99.90
3488;DHT22;38546;48.170;11.724;2022-09-09T17:21:27;18.10;99.90
3488;DHT22;38546;48.170;11.724;2022-09-09T17:24:17;18.00;99.90
3488;DHT22;38546;48.170;11.724;2022-09-09T17:27:06;17.90;99.90
3488;DHT22;38546;48.170;11.724;2022-09-09T17:29:56;17.80;99.90
3488;DHT22;38546;48.170;11.724;2022-09-09T17:32:46;17.70;99.90
3488;DHT22;38546;48.170;11.724;2022-09-09T17:35:35;17.70;99.90
3488;DHT22;38546;48.170;11.724;2022-09-09T17:38:25;17.60;99.90
3488;DHT22;38546;48.170;11.724;2022-09-09T17:41:41;17.50;99.90
3488;DHT22;38546;48.170;11.724;2022-09-09T17:44:30;17.40;99.90
3488;DHT22;38546;48.170;11.724;2022-09-09T17:47:20;17.40;99.90
3488;DHT22;38546;48.170;11.724;2022-09-09T17:50:10;17.30;99.90
3488;DHT22;38546;48.170;11.724;2022-09-09T17:53:01;17.20;99.90
3488;DHT22;38546;48.170;11.724;2022-09-09T17:55:51;17.20;99.90
3488;DHT22;38546;48.170;11.724;2022-09-09T17:58:40;17.10;99.90
3488;DHT22;38546;48.170;11.724;2022-09-09T18:01:32;17.10;99.90
3488;DHT22;38546;48.170;11.724;2022-09-09T18:04:23;17.00;99.90
3488;DHT22;38546;48.170;11.724;2022-09-09T18:07:12;16.90;99.90
3488;DHT22;38546;48.170;11.724;2022-09-09T18:10:02;16.90;99.90
3488;DHT22;38546;48.170;11.724;2022-09-09T18:12:51;16.80;99.90
3488;DHT22;38546;48.170;11.724;2022-09-09T18:15:40;16.80;99.90
3488;DHT22;38546;48.170;11.724;2022-09-09T18:18:30;16.70;99.90
3488;DHT22;38546;48.170;11.724;2022-09-09T18:21:19;16.60;99.90
3488;DHT22;38546;48.170;11.724;2022-09-09T18:24:09;16.60;99.90
3488;DHT22;38546;48.170;11.724;2022-09-09T18:27:00;16.60;99.90
3488;DHT22;38546;48.170;11.724;2022-09-09T18:29:50;16.60;99.90
3488;DHT22;38546;48.170;11.724;2022-09-09T18:32:39;16.50;99.90
3488;DHT22;38546;48.170;11.724;2022-09-09T18:35:29;16.50;99.90
3488;DHT22;38546;48.170;11.724;2022-09-09T18:38:18;16.40;99.90
3488;DHT22;38546;48.170;11.724;2022-09-09T18:41:30;16.30;99.90
3488;DHT22;38546;48.170;11.724;2022-09-09T18:44:23;16.30;99.90
3488;DHT22;38546;48.170;11.724;2022-09-09T18:47:13;16.30;99.90
3488;DHT22;38546;48.170;11.724;2022-09-09T18:50:06;16.20;99.90
3488;DHT22;38546;48.170;11.724;2022-09-09T18:52:55;16.20;99.90
3488;DHT22;38546;48.170;11.724;2022-09-09T18:55:44;16.20;99.90
3488;DHT22;38546;48.170;11.724;2022-09-09T18:58:34;16.10;99.90
3488;DHT22;38546;48.170;11.724;2022-09-09T19:01:24;16.10;99.90
3488;DHT22;38546;48.170;11.724;2022-09-09T19:04:14;16.00;99.90
3488;DHT22;38546;48.170;11.724;2022-09-09T19:07:03;16.00;99.90
3488;DHT22;38546;48.170;11.724;2022-09-09T19:09:53;15.90;99.90
3488;DHT22;38546;48.170;11.724;2022-09-09T19:12:41;15.90;99.90
3488;DHT22;38546;48.170;11.724;2022-09-09T19:15:34;15.80;99.90
3488;DHT22;38546;48.170;11.724;2022-09-09T19:18:25;15.80;99.90
3488;DHT22;38546;48.170;11.724;2022-09-09T19:21:17;15.70;99.90
3488;DHT22;38546;48.170;11.724;2022-09-09T19:24:13;15.70;99.90
3488;DHT22;38546;48.170;11.724;2022-09-09T19:27:12;15.70;99.90
3488;DHT22;38546;48.170;11.724;2022-09-09T19:30:01;15.70;99.90
3488;DHT22;38546;48.170;11.724;2022-09-09T19:32:50;15.80;99.90
3488;DHT22;38546;48.170;11.724;2022-09-09T19:35:40;16.00;99.90
3488;DHT22;38546;48.170;11.724;2022-09-09T19:38:30;15.80;99.90
3488;DHT22;38546;48.170;11.724;2022-09-09T19:41:22;15.60;99.90
3488;DHT22;38546;48.170;11.724;2022-09-09T19:44:13;15.40;99.90
3488;DHT22;38546;48.170;11.724;2022-09-09T19:47:03;15.20;99.90
3488;DHT22;38546;48.170;11.724;2022-09-09T19:49:53;15.20;99.90